createdAt,value
2022-10-22T07:27:40.773Z,1.30
2022-10-22T07:30:08.656Z,1.30
2022-10-22T07:32:35.284Z,1.20
2022-10-22T07:35:02.111Z,1.70
2022-10-22T07:37:28.699Z,1.80
2022-10-22T07:39:55.583Z,2.08
2022-10-22T07:42:22.406Z,1.52
2022-10-22T07:44:49.563Z,1.70
2022-10-22T07:47:16.357Z,1.50
2022-10-22T07:49:43.200Z,1.65
2022-10-22T07:52:09.969Z,1.60
2022-10-22T07:54:37.052Z,1.70
2022-10-22T07:57:03.930Z,1.30
2022-10-22T07:59:30.963Z,1.38
2022-10-22T08:01:57.706Z,1.70
2022-10-22T08:04:25.139Z,1.90
2022-10-22T08:06:52.017Z,1.88
2022-10-22T08:09:19.114Z,2.37
2022-10-22T08:11:46.419Z,2.10
2022-10-22T08:14:13.551Z,2.30
2022-10-22T08:16:40.380Z,2.90
2022-10-22T08:19:07.428Z,2.50
2022-10-22T08:21:34.577Z,2.00
2022-10-22T08:24:01.798Z,2.20
2022-10-22T08:26:28.658Z,3.08
2022-10-22T08:28:55.644Z,3.13
2022-10-22T08:31:22.590Z,1.90
2022-10-22T08:33:49.992Z,1.60
2022-10-22T08:36:16.715Z,4.03
2022-10-22T08:38:43.745Z,3.83
2022-10-22T08:41:17.083Z,3.58
2022-10-22T08:43:59.226Z,2.45
2022-10-22T08:46:35.617Z,2.43
2022-10-22T08:49:05.688Z,2.60
2022-10-22T08:51:40.403Z,2.20
2022-10-22T08:54:26.643Z,2.28
2022-10-22T08:57:07.888Z,2.00
2022-10-22T08:59:46.621Z,1.90
2022-10-22T09:02:28.174Z,2.30
2022-10-22T09:05:10.027Z,1.98
2022-10-22T09:07:48.609Z,2.05
2022-10-22T09:10:17.674Z,2.35
2022-10-22T09:12:45.312Z,2.17
2022-10-22T09:15:15.017Z,2.67
2022-10-22T09:18:12.850Z,2.50
2022-10-22T09:20:50.821Z,1.90
2022-10-22T09:23:37.740Z,1.83
2022-10-22T09:26:13.392Z,2.03
2022-10-22T09:28:40.317Z,1.80
2022-10-22T09:31:14.996Z,1.80
2022-10-22T09:33:44.249Z,1.67
2022-10-22T09:36:21.525Z,1.30
2022-10-22T09:38:50.910Z,1.20
2022-10-22T09:41:27.166Z,1.60
2022-10-22T09:43:54.025Z,1.65
2022-10-22T09:46:28.557Z,1.50
2022-10-22T09:49:09.519Z,1.58
2022-10-22T09:51:57.581Z,1.87
2022-10-22T09:54:39.682Z,2.05
2022-10-22T09:57:22.050Z,1.67
2022-10-22T09:59:52.492Z,1.20
2022-10-22T10:02:38.116Z,1.30
2022-10-22T10:05:06.701Z,1.30
2022-10-22T10:07:35.675Z,1.30
2022-10-22T10:10:02.891Z,1.33
2022-10-22T10:12:42.049Z,1.30
2022-10-22T10:15:17.967Z,1.23
2022-10-22T10:18:14.662Z,1.37
2022-10-22T10:21:23.286Z,1.20
2022-10-22T10:23:57.913Z,1.48
2022-10-22T10:26:33.106Z,1.55
2022-10-22T10:29:42.325Z,1.50
2022-10-22T10:32:28.087Z,1.53
2022-10-22T10:35:16.668Z,1.42
2022-10-22T10:38:05.837Z,1.40
2022-10-22T10:40:50.104Z,1.50
2022-10-22T10:43:25.945Z,1.10
2022-10-22T10:46:23.233Z,1.40
2022-10-22T10:48:59.442Z,1.50
2022-10-22T10:51:55.868Z,1.30
2022-10-22T10:54:46.112Z,1.40
2022-10-22T10:57:35.323Z,0.85
2022-10-22T11:00:07.632Z,1.43
2022-10-22T11:03:13.292Z,1.00
2022-10-22T11:06:00.097Z,1.10
2022-10-22T11:08:31.897Z,1.30
2022-10-22T11:11:08.649Z,1.10
2022-10-22T11:13:43.732Z,1.00
2022-10-22T11:16:23.441Z,0.90
2022-10-22T11:19:22.507Z,0.90
2022-10-22T11:22:14.251Z,1.00
2022-10-22T11:24:55.507Z,1.08
2022-10-22T11:27:27.107Z,1.30
2022-10-22T11:30:02.805Z,1.08
2022-10-22T11:32:30.762Z,1.20
2022-10-22T11:35:04.243Z,1.10
2022-10-22T11:37:35.279Z,1.00
2022-10-22T11:40:18.471Z,1.10
2022-10-22T11:42:50.194Z,1.20
2022-10-22T11:45:17.142Z,1.10
2022-10-22T11:48:12.594Z,1.00
2022-10-22T11:50:55.056Z,1.08
2022-10-22T11:53:36.272Z,1.30
2022-10-22T11:56:06.483Z,1.10
2022-10-22T11:58:47.666Z,1.20
2022-10-22T12:01:26.810Z,1.25
2022-10-22T12:03:59.714Z,1.00
2022-10-22T12:06:28.210Z,2.10
2022-10-22T12:08:55.112Z,1.30
2022-10-22T12:11:37.353Z,1.20
2022-10-22T12:14:32.071Z,0.95
2022-10-22T12:17:05.091Z,1.40
2022-10-22T12:19:51.234Z,1.00
2022-10-22T12:22:25.856Z,1.30
2022-10-22T12:24:54.647Z,1.67
2022-10-22T12:27:23.258Z,1.10
2022-10-22T12:29:55.572Z,1.15
2022-10-22T12:32:23.012Z,1.30
2022-10-22T12:34:53.078Z,1.40
2022-10-22T12:37:20.083Z,1.27
2022-10-22T12:39:47.444Z,1.10
2022-10-22T12:42:18.095Z,1.17
2022-10-22T12:44:45.238Z,1.03
2022-10-22T12:47:17.003Z,1.17
2022-10-22T12:49:50.655Z,1.17
2022-10-22T12:52:21.560Z,1.13
2022-10-22T12:54:52.599Z,1.10
2022-10-22T12:57:21.282Z,1.40
2022-10-22T12:59:52.049Z,1.38
2022-10-22T13:02:24.657Z,1.40
2022-10-22T13:05:27.162Z,1.10
2022-10-22T13:08:03.390Z,1.00
2022-10-22T13:10:36.212Z,1.20
2022-10-22T13:13:06.826Z,1.00
2022-10-22T13:15:34.339Z,0.90
2022-10-22T13:18:20.081Z,1.30
2022-10-22T13:20:55.158Z,1.30
2022-10-22T13:23:24.489Z,0.90
2022-10-22T13:25:59.369Z,1.00
2022-10-22T13:28:27.693Z,1.05
2022-10-22T13:31:00.365Z,1.20
2022-10-22T13:33:34.764Z,1.00
2022-10-22T13:36:01.746Z,1.10
2022-10-22T13:38:29.313Z,1.20
2022-10-22T13:40:56.981Z,1.40
2022-10-22T13:43:25.083Z,1.20
2022-10-22T13:45:55.608Z,1.38
2022-10-22T13:48:24.788Z,1.70
2022-10-22T13:50:52.877Z,1.23
2022-10-22T13:53:25.437Z,1.20
2022-10-22T13:55:52.186Z,1.00
2022-10-22T13:58:21.377Z,0.85
2022-10-22T14:00:57.827Z,1.10
2022-10-22T14:03:35.714Z,1.02
2022-10-22T14:06:02.591Z,1.17
2022-10-22T14:08:29.641Z,1.13
2022-10-22T14:10:56.882Z,0.93
2022-10-22T14:13:23.819Z,0.90
2022-10-22T14:15:52.164Z,1.10
2022-10-22T14:18:26.286Z,1.10
2022-10-22T14:20:58.930Z,1.00
2022-10-22T14:23:28.981Z,1.10
2022-10-22T14:25:56.635Z,0.80
2022-10-22T14:28:23.549Z,0.95
2022-10-22T14:30:51.240Z,1.30
2022-10-22T14:33:19.374Z,1.10
2022-10-22T14:35:48.453Z,1.00
2022-10-22T14:38:16.113Z,0.70
2022-10-22T14:40:43.766Z,1.10
2022-10-22T14:43:14.612Z,1.00
2022-10-22T14:45:41.327Z,0.90
2022-10-22T14:48:08.463Z,0.90
2022-10-22T14:50:35.369Z,1.03
2022-10-22T14:53:02.319Z,1.00
2022-10-22T14:55:29.252Z,1.00
2022-10-22T14:57:56.388Z,0.90
2022-10-22T15:00:23.254Z,0.90
2022-10-22T15:02:50.337Z,0.90
2022-10-22T15:05:17.755Z,0.90
2022-10-22T15:07:45.409Z,1.30
2022-10-22T15:10:12.450Z,0.98
2022-10-22T15:12:39.474Z,1.05
2022-10-22T15:15:06.925Z,1.00
2022-10-22T15:17:33.973Z,1.10
2022-10-22T15:20:04.055Z,1.30
2022-10-22T15:22:37.443Z,1.20
2022-10-22T15:25:08.073Z,0.90
2022-10-22T15:27:35.773Z,0.93
2022-10-22T15:32:29.825Z,1.13
2022-10-22T15:34:56.625Z,1.20
2022-10-22T15:37:23.670Z,1.00
2022-10-22T15:39:50.402Z,1.20
2022-10-22T15:42:18.678Z,0.88
2022-10-22T15:44:45.897Z,1.05
2022-10-22T15:47:12.759Z,0.88
2022-10-22T15:49:39.840Z,0.90
2022-10-22T15:52:06.776Z,0.90
2022-10-22T15:54:33.551Z,0.90
2022-10-22T15:57:08.487Z,0.90
2022-10-22T15:59:36.025Z,1.00
2022-10-22T16:02:03.082Z,1.00
2022-10-22T16:04:30.109Z,0.87
2022-10-22T16:06:58.167Z,0.88
2022-10-22T16:09:27.136Z,0.88
2022-10-22T16:11:55.413Z,0.77
2022-10-22T16:14:23.558Z,0.98
2022-10-22T16:16:53.499Z,0.90
2022-10-22T16:19:22.254Z,1.02
2022-10-22T16:21:54.937Z,1.20
2022-10-22T16:24:22.698Z,1.00
2022-10-22T16:26:49.794Z,1.00
2022-10-22T16:29:16.553Z,1.00
2022-10-22T16:31:44.111Z,0.90
2022-10-22T16:34:11.941Z,1.10
2022-10-22T16:36:39.001Z,1.10
2022-10-22T16:39:06.418Z,1.35
2022-10-22T16:41:35.341Z,1.13
2022-10-22T16:44:07.744Z,1.10
2022-10-22T16:46:38.472Z,1.75
2022-10-22T16:49:06.231Z,1.65
2022-10-22T16:51:33.488Z,1.70
2022-10-22T16:54:00.412Z,1.40
2022-10-22T16:56:27.428Z,1.40
2022-10-22T16:58:56.667Z,1.60
2022-10-22T17:01:29.717Z,2.60
2022-10-22T17:03:59.291Z,1.40
2022-10-22T17:06:26.530Z,1.40
2022-10-22T17:08:53.274Z,1.40
2022-10-22T17:11:22.926Z,1.50
2022-10-22T17:13:52.627Z,2.00
2022-10-22T17:16:22.521Z,1.60
2022-10-22T17:18:49.504Z,1.97
2022-10-22T17:21:18.437Z,1.65
2022-10-22T17:23:46.103Z,2.03
2022-10-22T17:26:20.388Z,1.42
2022-10-22T17:28:48.011Z,1.60
2022-10-22T17:31:21.244Z,1.30
2022-10-22T17:33:49.955Z,1.65
2022-10-22T17:36:18.337Z,2.30
2022-10-22T17:38:49.445Z,2.97
2022-10-22T17:41:19.568Z,2.88
2022-10-22T17:46:27.353Z,3.78
2022-10-22T17:49:00.047Z,4.10
2022-10-22T17:51:28.142Z,4.10
2022-10-22T17:53:55.037Z,4.50
2022-10-22T17:56:24.896Z,5.00
2022-10-22T17:58:52.207Z,4.10
2022-10-22T18:01:28.480Z,4.45
2022-10-22T18:03:59.345Z,3.45
2022-10-22T18:06:26.625Z,2.50
2022-10-22T18:11:22.308Z,3.42
2022-10-22T18:13:53.380Z,4.68
2022-10-22T18:16:20.637Z,3.55
2022-10-22T18:18:53.102Z,4.20
2022-10-22T18:21:21.314Z,5.70
2022-10-22T18:23:48.113Z,6.88
2022-10-22T18:26:17.939Z,8.85
2022-10-22T18:28:46.329Z,8.98
2022-10-22T18:31:17.458Z,9.38
2022-10-22T18:33:44.298Z,8.30
2022-10-22T18:36:13.272Z,6.20
2022-10-22T18:38:40.233Z,7.88
2022-10-22T18:41:09.699Z,6.10
2022-10-22T18:43:36.913Z,5.57
2022-10-22T18:46:07.376Z,6.03
2022-10-22T18:48:35.141Z,7.55
2022-10-22T18:51:05.755Z,6.22
2022-10-22T18:53:33.121Z,4.65
2022-10-22T18:56:00.364Z,5.97
2022-10-22T18:58:27.024Z,6.37
2022-10-22T19:00:53.885Z,8.25
2022-10-22T19:03:20.519Z,7.82
2022-10-22T19:05:54.260Z,6.85
2022-10-22T19:08:23.173Z,7.20
2022-10-22T19:10:50.138Z,6.50
2022-10-22T19:13:18.890Z,5.60
2022-10-22T19:15:45.721Z,5.20
2022-10-22T19:18:13.249Z,5.13
2022-10-22T19:20:40.128Z,5.05
2022-10-22T19:23:07.513Z,4.50
2022-10-22T19:25:35.086Z,4.38
2022-10-22T19:28:01.809Z,4.50
2022-10-22T19:30:28.623Z,4.25
2022-10-22T19:32:55.356Z,4.32
2022-10-22T19:35:22.406Z,4.40
2022-10-22T19:37:49.193Z,4.05
2022-10-22T19:40:16.059Z,4.25
2022-10-22T19:42:44.534Z,4.20
2022-10-22T19:45:11.889Z,4.40
2022-10-22T19:47:38.809Z,4.47
2022-10-22T19:50:06.261Z,4.40
2022-10-22T19:52:33.593Z,5.15
2022-10-22T19:55:00.395Z,4.82
2022-10-22T19:57:27.223Z,4.32
2022-10-22T19:59:53.977Z,4.30
2022-10-22T20:02:20.592Z,5.20
2022-10-22T20:04:49.956Z,4.93
2022-10-22T20:07:16.902Z,5.20
2022-10-22T20:09:43.863Z,5.20
2022-10-22T20:12:10.498Z,6.70
2022-10-22T20:14:37.504Z,6.32
2022-10-22T20:17:04.556Z,6.22
2022-10-22T20:19:32.460Z,5.78
2022-10-22T20:24:30.900Z,5.07
2022-10-22T20:26:57.583Z,7.30
2022-10-22T20:29:24.621Z,5.38
2022-10-22T20:31:51.558Z,5.10
2022-10-22T20:34:18.434Z,5.70
2022-10-22T20:36:45.088Z,5.60
2022-10-22T20:39:14.974Z,5.38
2022-10-22T20:41:41.903Z,6.25
2022-10-22T20:44:14.564Z,5.97
2022-10-22T20:46:41.239Z,6.00
2022-10-22T20:49:20.572Z,6.27
2022-10-22T20:51:47.232Z,5.30
2022-10-22T20:54:15.089Z,5.40
2022-10-22T20:56:42.305Z,4.05
2022-10-22T20:59:11.089Z,4.70
2022-10-22T21:01:40.824Z,4.40
2022-10-22T21:04:08.161Z,3.97
2022-10-22T21:06:38.260Z,3.88
2022-10-22T21:09:06.853Z,6.93
2022-10-22T21:11:34.589Z,6.78
2022-10-22T21:14:02.919Z,4.77
2022-10-22T21:16:30.037Z,4.90
2022-10-22T21:18:56.950Z,5.53
2022-10-22T21:21:23.655Z,5.50
2022-10-22T21:23:51.311Z,5.75
2022-10-22T21:26:19.496Z,5.40
2022-10-22T21:28:46.942Z,5.45
2022-10-22T21:31:20.534Z,5.03
2022-10-22T21:33:49.911Z,4.70
2022-10-22T21:36:21.668Z,5.25
2022-10-22T21:38:53.713Z,4.83
2022-10-22T21:41:22.466Z,4.95
2022-10-22T21:43:50.112Z,4.80
2022-10-22T21:46:22.727Z,5.30
2022-10-22T21:49:01.863Z,5.88
2022-10-22T21:51:33.285Z,4.83
2022-10-22T21:54:00.279Z,5.10
2022-10-22T21:56:30.276Z,6.22
2022-10-22T21:58:57.071Z,4.88
2022-10-22T22:01:24.170Z,5.40
2022-10-22T22:03:53.015Z,6.47
2022-10-22T22:06:23.236Z,6.50
2022-10-22T22:08:53.099Z,9.75
2022-10-22T22:11:23.509Z,8.82
2022-10-22T22:13:51.742Z,7.40
2022-10-22T22:16:28.100Z,6.13
2022-10-22T22:19:00.959Z,5.80
2022-10-22T22:21:28.060Z,5.40
2022-10-22T22:23:55.022Z,5.22
2022-10-22T22:26:28.719Z,5.45
2022-10-22T22:28:59.267Z,5.40
2022-10-22T22:31:31.965Z,5.20
2022-10-22T22:34:13.828Z,5.63
2022-10-22T22:36:43.094Z,5.18
2022-10-22T22:39:15.915Z,4.60
2022-10-22T22:41:43.096Z,4.80
2022-10-22T22:44:10.553Z,4.60
2022-10-22T22:46:37.368Z,5.47
2022-10-22T22:49:05.276Z,5.70
2022-10-22T22:51:32.236Z,6.93
2022-10-22T22:54:00.212Z,6.60
2022-10-22T22:56:29.834Z,6.50
2022-10-22T22:58:57.428Z,6.00
2022-10-22T23:01:27.363Z,4.97
2022-10-22T23:03:57.076Z,5.18
2022-10-22T23:06:25.817Z,4.47
2022-10-22T23:08:53.977Z,6.10
2022-10-22T23:11:22.841Z,5.10
2022-10-22T23:13:53.664Z,4.43
2022-10-22T23:16:22.677Z,4.72
2022-10-22T23:18:50.356Z,5.10
2022-10-22T23:21:22.441Z,4.70
2022-10-22T23:23:52.972Z,4.53
2022-10-22T23:26:25.760Z,4.38
2022-10-22T23:28:53.209Z,4.68
2022-10-22T23:31:24.582Z,4.87
2022-10-22T23:33:51.795Z,4.53
2022-10-22T23:36:18.555Z,6.00
2022-10-22T23:38:45.518Z,4.25
2022-10-22T23:41:12.305Z,4.40
2022-10-22T23:43:39.372Z,4.50
2022-10-22T23:46:08.021Z,4.63
2022-10-22T23:48:35.694Z,4.50
2022-10-22T23:51:10.974Z,4.53
2022-10-22T23:53:39.008Z,4.40
2022-10-22T23:56:08.426Z,4.40
2022-10-22T23:58:35.837Z,4.35
